Time;durP1;ratioP1;P1;durP2;ratioP2;P2;SDS_P1;SDS_P2;PMS_P1;PMS_P2;Temp;Humidity;BMP_temperature;BMP_pressure;BME280_temperature;BME280_humidity;BME280_pressure;Samples;Min_cycle;Max_cycle;Signal;HPM_P1;HPM_P2
2021/09/29 00:00:39;;;;;;;16.20;8.50;;;11.90;97.30;;;;;;5011233;28;20259;-86
2021/09/29 00:03:05;;;;;;;14.80;8.10;;;12.00;97.30;;;;;;5011317;28;20297;-85
2021/09/29 00:05:31;;;;;;;12.90;8.07;;;12.00;97.30;;;;;;5011583;28;20185;-85
2021/09/29 00:07:57;;;;;;;18.10;9.00;;;12.00;97.30;;;;;;5011493;28;20477;-85
2021/09/29 00:10:22;;;;;;;13.70;8.30;;;11.90;97.30;;;;;;5011319;28;20547;-85
2021/09/29 00:12:48;;;;;;;13.90;8.83;;;11.90;97.30;;;;;;5011235;28;20188;-85
2021/09/29 00:15:15;;;;;;;15.33;8.60;;;11.90;97.30;;;;;;5011001;28;20183;-86
2021/09/29 00:17:45;;;;;;;15.23;8.57;;;11.90;97.30;;;;;;5011874;28;20220;-85
2021/09/29 00:20:13;;;;;;;14.63;8.70;;;11.90;97.30;;;;;;5012375;28;20507;-85
2021/09/29 00:22:40;;;;;;;18.83;9.57;;;11.90;97.30;;;;;;5012320;28;20774;-85
2021/09/29 00:25:08;;;;;;;15.23;7.97;;;11.90;97.30;;;;;;5011365;28;20507;-85
2021/09/29 00:27:35;;;;;;;19.37;9.40;;;11.80;97.30;;;;;;5011105;28;20424;-85
2021/09/29 00:30:05;;;;;;;20.33;9.00;;;11.80;97.30;;;;;;5011418;28;20946;-85
2021/09/29 00:32:31;;;;;;;15.70;9.37;;;11.80;97.30;;;;;;5027323;28;20416;-85
2021/09/29 00:34:57;;;;;;;16.60;8.27;;;11.80;97.30;;;;;;5012060;28;20412;-86
2021/09/29 00:37:22;;;;;;;22.07;9.70;;;11.80;97.30;;;;;;5010988;28;20524;-86
2021/09/29 00:39:48;;;;;;;18.97;9.37;;;11.80;97.30;;;;;;5012387;28;20173;-85
2021/09/29 00:42:13;;;;;;;13.40;7.83;;;11.70;97.30;;;;;;5011277;28;20180;-85
2021/09/29 00:44:39;;;;;;;19.67;9.70;;;11.70;97.30;;;;;;5011185;28;20224;-86
2021/09/29 00:47:04;;;;;;;20.27;9.80;;;11.60;97.30;;;;;;5010757;28;20185;-86
2021/09/29 00:49:30;;;;;;;23.80;10.10;;;11.60;97.30;;;;;;5010494;28;20184;-85
2021/09/29 00:51:57;;;;;;;17.73;9.03;;;11.60;97.30;;;;;;5010486;28;20579;-86
2021/09/29 00:54:28;;;;;;;16.20;8.60;;;11.60;97.30;;;;;;5009908;28;20220;-86
2021/09/29 00:56:55;;;;;;;14.80;8.50;;;11.60;97.30;;;;;;5027234;28;20464;-84
2021/09/29 00:59:21;;;;;;;20.53;9.97;;;11.60;97.30;;;;;;5010960;28;20854;-85
2021/09/29 01:01:47;;;;;;;20.27;9.40;;;11.60;97.30;;;;;;5010462;28;20606;-85
2021/09/29 01:04:14;;;;;;;17.20;9.23;;;11.60;97.30;;;;;;5010399;28;20969;-85
2021/09/29 01:06:52;;;;;;;24.47;9.40;;;11.60;97.30;;;;;;5011935;28;20507;-85
2021/09/29 01:09:27;;;;;;;20.53;10.10;;;11.60;97.30;;;;;;5010824;28;20918;-85
2021/09/29 01:12:01;;;;;;;18.43;9.40;;;11.60;97.30;;;;;;5010463;28;20455;-86
2021/09/29 01:14:43;;;;;;;17.63;9.73;;;11.60;97.30;;;;;;5010423;28;20466;-83
2021/09/29 01:17:10;;;;;;;15.50;8.20;;;11.60;97.30;;;;;;5010223;28;20482;-85
2021/09/29 01:19:48;;;;;;;19.83;8.60;;;11.70;97.30;;;;;;5010112;28;20416;-85
2021/09/29 01:22:24;;;;;;;19.03;9.70;;;11.70;97.30;;;;;;5009912;28;20412;-85
2021/09/29 01:24:55;;;;;;;19.93;10.03;;;11.80;97.30;;;;;;5009995;28;20507;-86
2021/09/29 01:27:23;;;;;;;21.40;10.80;;;11.80;97.30;;;;;;5010816;28;20514;-86
2021/09/29 01:29:51;;;;;;;23.07;11.07;;;11.80;97.30;;;;;;5010245;28;20498;-85
2021/09/29 01:32:18;;;;;;;18.43;9.70;;;11.80;97.30;;;;;;5010568;28;20459;-85
2021/09/29 01:34:45;;;;;;;22.87;10.20;;;11.90;97.30;;;;;;5010090;28;20439;-86
2021/09/29 01:37:11;;;;;;;18.90;9.10;;;11.90;97.30;;;;;;5009984;28;21064;-85
2021/09/29 01:39:37;;;;;;;18.83;9.90;;;11.90;97.30;;;;;;5010462;28;20424;-86
2021/09/29 01:42:04;;;;;;;18.97;9.57;;;11.90;97.30;;;;;;5010699;28;20790;-85
2021/09/29 01:44:31;;;;;;;18.50;8.80;;;12.00;97.30;;;;;;5009800;28;20440;-85
2021/09/29 01:46:58;;;;;;;22.70;9.57;;;12.00;97.30;;;;;;5026746;28;20667;-86
2021/09/29 01:49:41;;;;;;;16.97;9.50;;;12.00;97.30;;;;;;5009565;28;20428;-86
2021/09/29 01:52:09;;;;;;;17.70;8.53;;;12.00;97.30;;;;;;5026082;28;20431;-85
2021/09/29 01:54:41;;;;;;;20.87;9.90;;;12.00;97.30;;;;;;5009385;28;20529;-85
2021/09/29 01:57:09;;;;;;;21.57;8.70;;;12.00;97.30;;;;;;5010051;28;21091;-86
2021/09/29 01:59:36;;;;;;;18.60;9.97;;;12.00;97.30;;;;;;5010426;28;20901;-86
2021/09/29 02:02:02;;;;;;;20.60;9.60;;;12.00;97.30;;;;;;5011258;28;20471;-85
2021/09/29 02:04:27;;;;;;;17.70;9.60;;;12.00;97.30;;;;;;5010319;28;20856;-85
2021/09/29 02:06:55;;;;;;;25.03;9.67;;;12.10;97.30;;;;;;5009982;28;20185;-85
2021/09/29 02:09:24;;;;;;;20.53;9.10;;;12.10;97.30;;;;;;5010266;28;20189;-86
2021/09/29 02:11:50;;;;;;;22.10;9.13;;;12.10;97.30;;;;;;5010058;28;20848;-86
2021/09/29 02:14:20;;;;;;;27.30;9.00;;;12.20;97.30;;;;;;5010074;28;20451;-86
2021/09/29 02:16:51;;;;;;;16.70;8.90;;;12.20;97.30;;;;;;5011290;28;20822;-86
2021/09/29 02:19:17;;;;;;;17.87;9.07;;;12.20;97.30;;;;;;5009756;28;20416;-85
2021/09/29 02:21:43;;;;;;;18.47;8.80;;;12.30;97.30;;;;;;5010050;28;20423;-86
2021/09/29 02:24:09;;;;;;;16.17;8.90;;;12.30;97.30;;;;;;5027118;28;20212;-86
2021/09/29 02:26:36;;;;;;;21.77;9.20;;;12.30;97.30;;;;;;5013389;28;20434;-86
2021/09/29 02:29:02;;;;;;;19.47;8.80;;;12.30;97.30;;;;;;5013278;28;20427;-86
2021/09/29 02:31:28;;;;;;;19.40;9.40;;;12.30;97.30;;;;;;5013370;28;20425;-85
2021/09/29 02:33:54;;;;;;;26.20;10.13;;;12.40;97.30;;;;;;5013204;28;20448;-86
2021/09/29 02:36:20;;;;;;;19.67;9.00;;;12.40;97.30;;;;;;5014373;28;20209;-85
2021/09/29 02:38:46;;;;;;;19.53;9.70;;;12.40;97.30;;;;;;5013401;28;20707;-86
2021/09/29 02:41:12;;;;;;;18.33;9.40;;;12.50;97.30;;;;;;5013051;28;20848;-85
2021/09/29 02:43:38;;;;;;;21.37;9.13;;;12.50;97.30;;;;;;5012888;28;20259;-85
2021/09/29 02:46:04;;;;;;;26.70;8.83;;;12.50;97.30;;;;;;5013137;28;20930;-86
2021/09/29 02:48:30;;;;;;;21.43;10.57;;;12.60;97.30;;;;;;5012880;28;20182;-86
2021/09/29 02:50:56;;;;;;;20.20;9.90;;;12.60;97.30;;;;;;5013073;28;20208;-85
2021/09/29 02:53:22;;;;;;;21.73;9.70;;;12.60;97.30;;;;;;5011926;28;20447;-85
2021/09/29 02:55:47;;;;;;;25.10;10.90;;;12.60;97.30;;;;;;5029253;28;20200;-86
2021/09/29 02:58:13;;;;;;;21.20;11.03;;;12.70;97.30;;;;;;5012825;28;20475;-85
2021/09/29 03:00:38;;;;;;;23.37;9.30;;;12.70;97.30;;;;;;5012654;28;20228;-86
2021/09/29 03:03:04;;;;;;;19.43;9.50;;;12.70;97.30;;;;;;5028790;28;20274;-86
2021/09/29 03:05:30;;;;;;;31.80;9.70;;;12.70;97.30;;;;;;5013149;28;20197;-86
2021/09/29 03:07:55;;;;;;;23.97;10.20;;;12.70;97.30;;;;;;5012410;28;20188;-85
2021/09/29 03:10:21;;;;;;;27.00;11.20;;;12.80;97.30;;;;;;5012609;28;20185;-86
2021/09/29 03:12:47;;;;;;;25.13;10.07;;;12.80;97.30;;;;;;5012011;28;20185;-86
2021/09/29 03:15:14;;;;;;;21.83;9.80;;;12.80;97.30;;;;;;5012203;28;20262;-85
2021/09/29 03:17:40;;;;;;;20.40;9.70;;;12.90;97.30;;;;;;5012283;28;20177;-86
2021/09/29 03:20:07;;;;;;;29.50;10.50;;;12.90;97.30;;;;;;5012448;28;20428;-86
2021/09/29 03:22:32;;;;;;;26.40;11.40;;;12.90;97.30;;;;;;5011464;28;20419;-85
2021/09/29 03:24:58;;;;;;;30.93;10.67;;;12.90;97.30;;;;;;5011918;28;20412;-86
2021/09/29 03:27:24;;;;;;;22.53;10.60;;;12.90;97.30;;;;;;5012375;28;20268;-86
2021/09/29 03:29:50;;;;;;;28.37;12.83;;;13.00;97.30;;;;;;5012105;28;20527;-86
2021/09/29 03:32:16;;;;;;;27.90;10.60;;;13.00;97.30;;;;;;5011908;28;20208;-86
2021/09/29 03:34:42;;;;;;;26.23;10.07;;;13.00;97.30;;;;;;5011477;28;20545;-86
2021/09/29 03:37:07;;;;;;;21.63;10.40;;;13.00;97.30;;;;;;5012139;28;20304;-86
2021/09/29 03:39:33;;;;;;;23.43;9.90;;;13.10;97.30;;;;;;5012358;28;20646;-86
2021/09/29 03:41:59;;;;;;;22.43;9.77;;;13.10;97.30;;;;;;5012090;28;20177;-85
2021/09/29 03:44:24;;;;;;;27.17;11.57;;;13.10;97.30;;;;;;5012096;28;20215;-86
2021/09/29 03:46:50;;;;;;;27.23;11.33;;;13.10;97.30;;;;;;5011974;28;20185;-86
2021/09/29 03:49:15;;;;;;;24.67;10.00;;;13.10;97.30;;;;;;5012020;28;20320;-85
2021/09/29 03:51:41;;;;;;;27.93;11.70;;;13.10;97.30;;;;;;5011368;28;20180;-86
2021/09/29 03:54:06;;;;;;;33.73;11.10;;;13.20;97.30;;;;;;5011322;28;20424;-86
2021/09/29 03:56:32;;;;;;;35.13;10.70;;;13.20;97.30;;;;;;5013320;28;20272;-85
2021/09/29 03:58:58;;;;;;;30.53;11.43;;;13.30;97.30;;;;;;5011436;28;20173;-85
2021/09/29 04:01:23;;;;;;;31.70;13.77;;;13.30;97.30;;;;;;5012663;28;20726;-85
2021/09/29 04:03:49;;;;;;;26.73;11.20;;;13.30;97.30;;;;;;5012795;28;20594;-85
2021/09/29 04:06:14;;;;;;;26.37;12.50;;;13.30;97.30;;;;;;5011750;28;20176;-86
2021/09/29 04:08:40;;;;;;;33.93;12.10;;;13.30;97.30;;;;;;5011195;28;20177;-86
2021/09/29 04:11:08;;;;;;;40.67;12.60;;;13.40;97.30;;;;;;5027812;28;20268;-86
2021/09/29 04:13:34;;;;;;;37.33;11.83;;;13.40;97.30;;;;;;5011321;28;20212;-86
2021/09/29 04:16:00;;;;;;;35.73;13.93;;;13.40;97.30;;;;;;5011477;28;20547;-86
2021/09/29 04:18:25;;;;;;;38.33;12.07;;;13.40;97.30;;;;;;5011466;28;20177;-85
2021/09/29 04:20:51;;;;;;;38.40;11.93;;;13.40;97.30;;;;;;5011406;28;20177;-86
2021/09/29 04:23:17;;;;;;;38.40;12.60;;;13.50;97.30;;;;;;5013302;28;20189;-84
2021/09/29 04:25:42;;;;;;;31.77;13.57;;;13.50;97.30;;;;;;5013330;28;20181;-85
2021/09/29 04:28:08;;;;;;;43.20;14.10;;;13.50;97.30;;;;;;5013262;28;20177;-86
2021/09/29 04:30:34;;;;;;;35.20;11.90;;;13.50;97.30;;;;;;5029323;28;20181;-85
2021/09/29 04:33:00;;;;;;;31.57;13.63;;;13.50;97.30;;;;;;5014349;28;20201;-86
2021/09/29 04:35:26;;;;;;;31.80;12.77;;;13.60;97.30;;;;;;5013202;28;20670;-86
2021/09/29 04:37:53;;;;;;;29.90;13.00;;;13.60;97.30;;;;;;5014309;28;20462;-86
2021/09/29 04:40:18;;;;;;;34.23;13.73;;;13.60;97.30;;;;;;5013203;28;20481;-86
2021/09/29 04:42:44;;;;;;;41.30;12.70;;;13.60;97.30;;;;;;5014362;28;20435;-86
2021/09/29 04:45:10;;;;;;;31.87;12.63;;;13.60;97.30;;;;;;5013164;28;20263;-86
2021/09/29 04:47:36;;;;;;;32.23;12.70;;;13.60;97.30;;;;;;5012331;28;20184;-86
2021/09/29 04:50:02;;;;;;;35.37;13.13;;;13.70;97.30;;;;;;5013056;28;20408;-86
2021/09/29 04:52:28;;;;;;;28.07;11.57;;;13.60;97.30;;;;;;5029689;28;20177;-85
2021/09/29 04:54:53;;;;;;;30.23;11.97;;;13.70;97.30;;;;;;5029209;28;20519;-86
2021/09/29 04:57:19;;;;;;;31.20;12.17;;;13.70;97.30;;;;;;5029249;28;20220;-85
2021/09/29 04:59:45;;;;;;;38.23;12.23;;;13.70;97.30;;;;;;5012679;28;20183;-86
2021/09/29 05:02:12;;;;;;;34.63;12.13;;;13.70;97.30;;;;;;5012742;28;20184;-86
2021/09/29 05:04:38;;;;;;;35.67;13.70;;;13.70;97.30;;;;;;5012869;28;20225;-86
2021/09/29 05:07:04;;;;;;;31.70;12.37;;;13.70;97.30;;;;;;5012685;28;20404;-85
2021/09/29 05:09:30;;;;;;;35.63;13.00;;;13.70;97.30;;;;;;5012882;28;20517;-86
2021/09/29 05:12:04;;;;;;;29.53;11.97;;;13.80;97.30;;;;;;5014122;28;21109;-86
2021/09/29 05:14:30;;;;;;;47.00;13.90;;;13.70;97.30;;;;;;5012666;28;20447;-86
2021/09/29 05:16:56;;;;;;;31.67;12.53;;;13.80;97.30;;;;;;5012618;28;20466;-85
2021/09/29 05:19:21;;;;;;;33.07;13.27;;;13.80;97.30;;;;;;5012816;28;20921;-86
2021/09/29 05:21:47;;;;;;;38.80;12.63;;;13.80;97.30;;;;;;5012691;28;20264;-86
2021/09/29 05:24:13;;;;;;;36.60;12.83;;;13.80;97.30;;;;;;5012778;28;20561;-86
2021/09/29 05:26:38;;;;;;;35.40;12.60;;;13.80;97.30;;;;;;5029079;28;20276;-85
2021/09/29 05:29:06;;;;;;;30.10;11.70;;;13.80;97.30;;;;;;5012680;28;20177;-86
2021/09/29 05:31:32;;;;;;;42.33;14.50;;;13.80;97.30;;;;;;5012662;28;20173;-86
2021/09/29 05:33:58;;;;;;;40.33;12.57;;;13.80;97.30;;;;;;5013173;28;20443;-85
2021/09/29 05:36:23;;;;;;;35.43;13.00;;;13.80;97.30;;;;;;5012440;28;20506;-86
2021/09/29 05:38:49;;;;;;;39.60;12.50;;;13.80;97.30;;;;;;5012797;28;20188;-85
2021/09/29 05:41:15;;;;;;;37.90;13.90;;;13.90;97.30;;;;;;5013937;28;20173;-86
2021/09/29 05:43:41;;;;;;;36.70;13.40;;;13.90;97.30;;;;;;5013183;28;20235;-86
2021/09/29 05:46:07;;;;;;;31.40;12.60;;;13.90;97.30;;;;;;5012506;28;20177;-86
2021/09/29 05:48:32;;;;;;;37.17;14.10;;;13.90;97.30;;;;;;5013845;28;20201;-85
2021/09/29 05:50:58;;;;;;;38.73;15.17;;;13.90;97.30;;;;;;5012424;28;20909;-85
2021/09/29 05:53:24;;;;;;;31.87;12.77;;;13.90;97.30;;;;;;5012300;28;20208;-85
2021/09/29 05:55:49;;;;;;;33.17;12.30;;;13.90;97.30;;;;;;5011956;28;20419;-86
2021/09/29 05:58:15;;;;;;;35.27;12.33;;;14.00;97.30;;;;;;5014069;28;20177;-86
2021/09/29 06:00:41;;;;;;;43.53;13.93;;;14.00;97.30;;;;;;5016045;28;20232;-86
2021/09/29 06:03:06;;;;;;;37.47;13.43;;;14.00;97.30;;;;;;5016106;28;20198;-85
2021/09/29 06:05:32;;;;;;;36.93;15.07;;;14.00;97.30;;;;;;5017321;28;20177;-86
2021/09/29 06:07:57;;;;;;;38.27;13.20;;;14.00;97.30;;;;;;5015801;28;20264;-86
2021/09/29 06:10:23;;;;;;;41.80;13.83;;;14.00;97.30;;;;;;5015796;28;20231;-86
2021/09/29 06:12:49;;;;;;;42.50;13.67;;;14.00;97.30;;;;;;5010525;28;20192;-86
2021/09/29 06:15:25;;;;;;;33.20;13.77;;;14.00;97.30;;;;;;4996466;28;20182;-86
2021/09/29 06:17:56;;;;;;;43.43;14.30;;;14.00;97.30;;;;;;5008254;28;20235;-86
2021/09/29 06:20:22;;;;;;;39.60;14.87;;;14.00;97.30;;;;;;5002381;28;20436;-86
2021/09/29 06:22:48;;;;;;;31.90;12.70;;;14.10;97.30;;;;;;5005810;28;20853;-85
2021/09/29 06:25:14;;;;;;;37.37;13.97;;;14.10;97.30;;;;;;5015792;28;20169;-86
2021/09/29 06:27:39;;;;;;;35.30;15.47;;;14.10;97.30;;;;;;5015929;28;20419;-86
2021/09/29 06:30:05;;;;;;;44.57;15.10;;;14.20;97.30;;;;;;5015773;28;20631;-87
2021/09/29 06:32:31;;;;;;;53.23;15.20;;;14.20;97.30;;;;;;5015643;28;20597;-85
2021/09/29 06:34:57;;;;;;;35.20;14.90;;;14.20;97.30;;;;;;5015688;28;20469;-85
2021/09/29 06:37:22;;;;;;;43.73;14.80;;;14.20;97.30;;;;;;5004396;28;20198;-86
2021/09/29 06:39:48;;;;;;;38.17;14.40;;;14.20;97.30;;;;;;4996303;28;20319;-85
2021/09/29 06:42:13;;;;;;;41.73;14.53;;;14.20;97.30;;;;;;4996195;28;20177;-85
2021/09/29 06:44:39;;;;;;;37.17;14.10;;;14.20;97.30;;;;;;4996180;28;20198;-86
2021/09/29 06:47:05;;;;;;;38.13;14.47;;;14.20;97.30;;;;;;4995867;28;20276;-86
2021/09/29 06:49:30;;;;;;;46.47;14.50;;;14.30;97.30;;;;;;4995454;28;20184;-86
2021/09/29 06:51:56;;;;;;;38.60;13.37;;;14.30;97.30;;;;;;4995551;28;20240;-86
2021/09/29 06:54:22;;;;;;;50.07;18.63;;;14.30;97.30;;;;;;4995521;28;20257;-86
2021/09/29 06:56:48;;;;;;;42.33;14.70;;;14.30;97.30;;;;;;5010073;28;20463;-87
2021/09/29 06:59:14;;;;;;;44.47;14.50;;;14.30;97.30;;;;;;5015342;28;20424;-87
2021/09/29 07:01:39;;;;;;;37.13;14.87;;;14.30;97.30;;;;;;4998064;28;20280;-87
2021/09/29 07:04:05;;;;;;;43.93;14.37;;;14.30;97.30;;;;;;4995723;28;20202;-87
2021/09/29 07:06:31;;;;;;;36.53;14.40;;;14.30;97.30;;;;;;4993988;28;20805;-86
2021/09/29 07:08:56;;;;;;;42.27;13.93;;;14.30;97.30;;;;;;4999624;28;20181;-87
2021/09/29 07:11:22;;;;;;;40.90;14.50;;;14.30;97.30;;;;;;4993970;28;20193;-87
2021/09/29 07:13:49;;;;;;;41.07;15.13;;;14.30;97.30;;;;;;4993927;28;20208;-87
2021/09/29 07:16:14;;;;;;;39.87;14.73;;;14.30;97.30;;;;;;4993959;28;20209;-87
2021/09/29 07:18:41;;;;;;;43.20;15.60;;;14.30;97.30;;;;;;4999326;28;20506;-88
2021/09/29 07:21:07;;;;;;;45.10;15.20;;;14.20;97.30;;;;;;5012246;28;20196;-88
2021/09/29 07:23:33;;;;;;;40.77;14.87;;;14.20;97.30;;;;;;4997372;28;20437;-87
2021/09/29 07:25:59;;;;;;;43.50;16.33;;;14.20;97.30;;;;;;4998822;28;20184;-88
2021/09/29 07:28:24;;;;;;;44.03;17.33;;;14.20;97.30;;;;;;5013382;28;20188;-87
2021/09/29 07:30:50;;;;;;;41.33;15.70;;;14.30;97.30;;;;;;5013777;28;20416;-87
2021/09/29 07:33:16;;;;;;;35.80;15.17;;;14.30;97.30;;;;;;5014534;28;20679;-88
2021/09/29 07:35:43;;;;;;;39.40;15.47;;;14.30;97.30;;;;;;4998995;28;20228;-87
2021/09/29 07:38:10;;;;;;;41.77;15.63;;;14.30;97.30;;;;;;5005525;28;20417;-88
2021/09/29 07:40:37;;;;;;;38.47;15.57;;;14.30;97.30;;;;;;5013565;28;20474;-87
2021/09/29 07:43:03;;;;;;;45.60;15.10;;;14.30;97.30;;;;;;5013652;28;20439;-87
2021/09/29 07:45:29;;;;;;;44.07;15.80;;;14.20;97.30;;;;;;5013585;28;20574;-87
2021/09/29 07:47:56;;;;;;;45.67;16.30;;;14.20;97.30;;;;;;5013973;28;20442;-87
2021/09/29 07:50:22;;;;;;;43.73;16.80;;;14.20;97.30;;;;;;5015287;28;20169;-87
2021/09/29 07:52:48;;;;;;;43.47;16.60;;;14.20;97.30;;;;;;5014826;28;20910;-87
2021/09/29 07:55:15;;;;;;;44.83;15.53;;;14.20;97.30;;;;;;5012973;28;20415;-87
2021/09/29 07:57:42;;;;;;;48.23;17.50;;;14.30;97.30;;;;;;5012947;28;20981;-87
2021/09/29 08:00:09;;;;;;;41.47;16.47;;;14.30;97.30;;;;;;5012868;28;21008;-87
2021/09/29 08:02:35;;;;;;;42.13;16.10;;;14.30;97.30;;;;;;5012721;28;20439;-87
2021/09/29 08:05:02;;;;;;;47.40;16.53;;;14.30;97.30;;;;;;5013071;28;20416;-86
2021/09/29 08:07:28;;;;;;;46.63;15.60;;;14.30;97.30;;;;;;5012449;28;20725;-86
2021/09/29 08:09:54;;;;;;;43.60;15.80;;;14.30;97.30;;;;;;5012885;28;20416;-87
2021/09/29 08:12:20;;;;;;;42.83;14.80;;;14.30;97.30;;;;;;5012092;28;20456;-87
2021/09/29 08:14:45;;;;;;;50.20;17.40;;;14.40;97.30;;;;;;5012091;28;20208;-88
2021/09/29 08:17:11;;;;;;;42.00;16.70;;;14.40;97.30;;;;;;5012173;28;20212;-87
2021/09/29 08:19:38;;;;;;;43.77;15.70;;;14.40;97.30;;;;;;5012251;28;20619;-87
2021/09/29 08:22:07;;;;;;;50.67;17.57;;;14.40;97.30;;;;;;5013379;28;20263;-87
2021/09/29 08:24:48;;;;;;;52.53;17.20;;;14.50;97.30;;;;;;5013750;28;20436;-87
2021/09/29 08:27:29;;;;;;;41.07;15.90;;;14.50;97.30;;;;;;4999643;28;20449;-87
2021/09/29 08:32:39;;;;;;;49.70;17.07;;;14.50;97.30;;;;;;4994759;28;20552;-87
2021/09/29 08:35:25;;;;;;;43.30;17.03;;;14.60;97.30;;;;;;4992869;28;20503;-87
2021/09/29 08:40:37;;;;;;;44.20;16.17;;;14.60;97.30;;;;;;4994090;28;20476;-87
2021/09/29 08:43:11;;;;;;;43.33;14.90;;;14.60;97.30;;;;;;4992813;28;20571;-87
2021/09/29 08:45:57;;;;;;;41.07;16.77;;;14.60;97.30;;;;;;4992350;28;20436;-87
2021/09/29 09:17:48;;;;;;;46.40;16.50;;;14.90;97.30;;;;;;5012848;28;20536;-86
2021/09/29 09:20:16;;;;;;;39.93;15.37;;;15.00;97.30;;;;;;5007991;28;20415;-86
2021/09/29 09:22:43;;;;;;;41.70;15.97;;;15.00;97.30;;;;;;5009957;28;20439;-86
2021/09/29 09:25:09;;;;;;;37.17;15.23;;;15.00;97.30;;;;;;5009805;28;20844;-86
2021/09/29 09:27:45;;;;;;;39.50;16.00;;;15.10;97.30;;;;;;5009065;28;20431;-86
2021/09/29 09:30:12;;;;;;;48.20;15.70;;;15.20;97.30;;;;;;5009921;28;20439;-85
2021/09/29 09:32:50;;;;;;;52.97;17.13;;;15.20;97.30;;;;;;5010658;28;20424;-84
2021/09/29 09:35:16;;;;;;;41.90;17.67;;;15.30;97.30;;;;;;5015043;28;20494;-86
2021/09/29 09:37:45;;;;;;;50.97;18.73;;;15.30;97.30;;;;;;5013063;28;20462;-86
2021/09/29 09:40:14;;;;;;;42.03;16.13;;;15.30;97.30;;;;;;5013878;28;20674;-84
2021/09/29 09:42:45;;;;;;;44.60;16.00;;;15.30;97.30;;;;;;5013607;28;20866;-85
2021/09/29 09:45:12;;;;;;;37.80;15.70;;;15.40;97.30;;;;;;5015193;28;20422;-85
2021/09/29 09:47:42;;;;;;;34.47;14.03;;;15.40;97.30;;;;;;5015982;28;20428;-85
2021/09/29 09:50:08;;;;;;;38.13;16.20;;;15.50;97.30;;;;;;5014172;28;20415;-84
2021/09/29 09:52:38;;;;;;;37.57;14.27;;;15.50;97.30;;;;;;5014325;28;20428;-84
2021/09/29 09:55:09;;;;;;;35.90;15.27;;;15.50;97.30;;;;;;5014501;28;20478;-85
2021/09/29 09:57:39;;;;;;;36.13;13.60;;;15.60;97.30;;;;;;5014320;28;20479;-85
2021/09/29 10:00:07;;;;;;;40.67;15.90;;;15.60;97.30;;;;;;5014054;28;20456;-84
2021/09/29 10:02:51;;;;;;;37.33;16.00;;;15.70;97.30;;;;;;5014477;28;20447;-85
2021/09/29 10:05:19;;;;;;;37.17;15.47;;;15.70;97.30;;;;;;5014178;28;20522;-85
2021/09/29 10:07:45;;;;;;;31.00;13.77;;;15.70;97.30;;;;;;5013803;28;20515;-85
2021/09/29 10:26:25;;;;;;;32.10;14.37;;;16.20;97.30;;;;;;5006297;28;20508;-86
2021/09/29 10:29:12;;;;;;;25.90;11.57;;;16.30;97.30;;;;;;5006930;28;20480;-85
2021/09/29 10:32:02;;;;;;;23.47;10.10;;;16.30;97.30;;;;;;5004768;28;20424;-86
2021/09/29 10:34:35;;;;;;;29.23;11.30;;;16.40;97.30;;;;;;5002838;28;20444;-85
2021/09/29 10:50:59;;;;;;;21.20;10.00;;;16.90;97.30;;;;;;4995523;28;20420;-85
2021/09/29 11:31:35;;;;;;;10.97;6.83;;;17.50;97.30;;;;;;4996346;28;20516;-84
2021/09/29 11:39:32;;;;;;;12.43;6.43;;;17.60;97.30;;;;;;5010269;28;20415;-82
2021/09/29 12:12:28;;;;;;;8.67;5.20;;;18.50;97.30;;;;;;4996366;28;20441;-84
2021/09/29 12:15:20;;;;;;;10.30;5.30;;;18.60;97.30;;;;;;5010453;28;20503;-84
2021/09/29 12:17:50;;;;;;;13.93;5.90;;;18.90;97.30;;;;;;4995092;28;20476;-83
2021/09/29 12:20:26;;;;;;;9.13;4.80;;;19.20;97.30;;;;;;5012528;28;20922;-84
2021/09/29 12:22:56;;;;;;;6.43;4.10;;;19.50;97.30;;;;;;5001579;28;20468;-83
2021/09/29 12:25:40;;;;;;;6.93;3.87;;;19.90;97.30;;;;;;4997109;28;20456;-83
2021/09/29 12:28:34;;;;;;;5.30;4.03;;;20.00;96.00;;;;;;5008901;28;20443;-83
2021/09/29 12:36:34;;;;;;;6.70;4.13;;;19.60;94.60;;;;;;5016054;28;20464;-84
2021/09/29 12:39:01;;;;;;;7.33;3.47;;;19.70;94.20;;;;;;5014165;28;20443;-85
2021/09/29 12:41:28;;;;;;;6.73;3.27;;;19.90;93.80;;;;;;5014701;28;21164;-84
2021/09/29 12:44:13;;;;;;;6.13;3.80;;;20.20;93.90;;;;;;5013691;28;20519;-84
2021/09/29 12:46:40;;;;;;;4.70;3.30;;;20.50;92.90;;;;;;5013698;28;20777;-83
2021/09/29 12:49:18;;;;;;;6.53;3.93;;;20.70;91.60;;;;;;5013928;28;20432;-83
2021/09/29 12:51:59;;;;;;;5.60;3.30;;;20.80;90.40;;;;;;5014030;28;20475;-84
2021/09/29 12:54:25;;;;;;;8.13;3.77;;;21.00;90.60;;;;;;5015199;28;20526;-83
2021/09/29 12:56:51;;;;;;;5.43;4.00;;;21.20;89.90;;;;;;5013489;28;20595;-84
2021/09/29 12:59:17;;;;;;;5.50;3.20;;;21.10;88.90;;;;;;5013828;28;20428;-83
2021/09/29 13:01:42;;;;;;;4.50;3.10;;;21.00;87.70;;;;;;5014181;28;20320;-82
2021/09/29 13:04:08;;;;;;;4.27;2.90;;;20.90;87.40;;;;;;5014088;28;20199;-83
2021/09/29 13:06:34;;;;;;;3.63;2.80;;;20.90;87.60;;;;;;5013623;28;20193;-83
2021/09/29 13:08:59;;;;;;;8.50;2.73;;;21.00;87.40;;;;;;5014473;28;20587;-83
2021/09/29 13:11:25;;;;;;;4.30;2.70;;;21.10;87.20;;;;;;5013592;28;20185;-85
2021/09/29 13:13:50;;;;;;;5.23;2.63;;;21.20;87.50;;;;;;5029662;28;20611;-85
2021/09/29 13:16:16;;;;;;;3.87;2.57;;;21.30;87.80;;;;;;5013649;28;20208;-85
2021/09/29 13:18:54;;;;;;;2.83;2.10;;;21.50;87.10;;;;;;5013217;28;20631;-86
2021/09/29 13:24:12;;;;;;;2.93;2.80;;;21.90;85.20;;;;;;5011190;28;20506;-83
2021/09/29 13:35:12;;;;;;;3.40;2.23;;;21.90;84.20;;;;;;5014714;28;21011;-85
2021/09/29 13:37:30;;;;;;;2.90;2.20;;;21.70;84.40;;;;;;5014043;28;20451;-85
2021/09/29 13:39:55;;;;;;;2.77;2.20;;;21.90;84.40;;;;;;5013013;28;20420;-84
2021/09/29 13:42:21;;;;;;;4.70;2.07;;;21.90;83.30;;;;;;5009968;28;20181;-85
2021/09/29 13:44:46;;;;;;;2.80;2.13;;;22.00;83.00;;;;;;4993602;28;20208;-85
2021/09/29 13:47:12;;;;;;;2.93;2.20;;;22.00;83.60;;;;;;4998527;28;20552;-86
2021/09/29 13:49:37;;;;;;;3.70;2.63;;;22.00;84.70;;;;;;5009715;28;20174;-86
2021/09/29 13:52:05;;;;;;;4.30;1.90;;;22.20;84.10;;;;;;4993108;28;20192;-85
2021/09/29 13:54:31;;;;;;;2.70;2.07;;;22.30;83.60;;;;;;4993781;28;20229;-85
2021/09/29 13:56:59;;;;;;;3.03;1.83;;;22.30;80.80;;;;;;4995295;28;21139;-84
2021/09/29 14:34:25;;;;;;;4.00;2.23;;;22.10;81.10;;;;;;5007325;28;20449;-85
2021/09/29 14:36:51;;;;;;;4.20;1.90;;;22.00;80.90;;;;;;4999079;28;20287;-86
2021/09/29 14:39:17;;;;;;;3.20;2.20;;;21.80;80.50;;;;;;5003960;28;20182;-83
2021/09/29 14:41:43;;;;;;;2.27;1.73;;;21.60;80.70;;;;;;5002270;28;20414;-85
2021/09/29 14:44:10;;;;;;;14.50;2.47;;;21.40;80.50;;;;;;5012325;28;20440;-85
2021/09/29 14:46:36;;;;;;;4.27;1.60;;;21.10;81.80;;;;;;5015646;28;20515;-84
2021/09/29 14:49:03;;;;;;;5.13;1.60;;;20.80;81.30;;;;;;5015135;28;20790;-85
2021/09/29 14:51:29;;;;;;;2.17;1.87;;;20.80;81.80;;;;;;5015790;28;20177;-86
2021/09/29 14:53:56;;;;;;;7.33;1.90;;;21.00;81.20;;;;;;5014294;28;20447;-84
2021/09/29 14:56:22;;;;;;;1.60;1.50;;;21.10;80.90;;;;;;5010613;28;20204;-84
2021/09/29 14:58:48;;;;;;;4.53;1.83;;;20.90;80.40;;;;;;5011101;28;20417;-85
2021/09/29 15:01:15;;;;;;;5.10;2.00;;;20.90;81.80;;;;;;5003054;28;20457;-86
2021/09/29 15:03:42;;;;;;;3.90;3.10;;;20.90;81.30;;;;;;4997176;28;20448;-83
2021/09/29 15:06:08;;;;;;;3.50;1.80;;;21.00;81.90;;;;;;5000912;28;20419;-84
2021/09/29 15:08:36;;;;;;;3.10;1.83;;;20.80;81.50;;;;;;4995632;28;20960;-85
2021/09/29 15:11:03;;;;;;;3.90;1.83;;;20.60;82.70;;;;;;4995926;28;20187;-84
2021/09/29 15:13:32;;;;;;;1.83;1.60;;;20.50;83.70;;;;;;4995583;28;20480;-85
2021/09/29 15:16:02;;;;;;;2.73;2.03;;;20.40;83.90;;;;;;5000650;28;20543;-85
2021/09/29 15:18:35;;;;;;;6.80;2.27;;;20.30;84.30;;;;;;4997705;28;20435;-85
2021/09/29 15:26:37;;;;;;;4.30;2.30;;;20.80;84.40;;;;;;4996968;28;20401;-84
2021/09/29 15:29:19;;;;;;;2.40;1.87;;;21.10;83.60;;;;;;5011188;28;20431;-83
2021/09/29 15:32:06;;;;;;;6.77;1.77;;;21.20;82.90;;;;;;5009150;28;20468;-83
2021/09/29 15:51:27;;;;;;;3.27;1.87;;;19.10;86.80;;;;;;5006706;28;20413;-86
2021/09/29 15:59:08;;;;;;;7.00;2.00;;;18.70;88.90;;;;;;5015534;28;20519;-84
2021/09/29 16:06:52;;;;;;;2.73;1.50;;;18.40;90.00;;;;;;5015870;28;20520;-84
2021/09/29 16:15:15;;;;;;;3.57;1.60;;;18.20;90.40;;;;;;4996934;28;20471;-84
2021/09/29 16:20:59;;;;;;;3.20;1.50;;;18.10;91.80;;;;;;4996660;28;20404;-84
2021/09/29 16:31:41;;;;;;;2.27;1.50;;;17.20;94.80;;;;;;4996185;28;20440;-84
2021/09/29 16:36:32;;;;;;;5.80;1.20;;;16.40;97.30;;;;;;4996106;28;20834;-85
2021/09/29 16:38:58;;;;;;;3.03;1.47;;;16.10;97.30;;;;;;5002963;28;20428;-87